Data for 07/30/2008

Time Sea-Level Adjusted Pressure Absolute Pressure Temperature Relative Humidity Dew Point   
(mb) (inHg) (mb) (inHg) (C) (F) (%) (C) (F)
00:05 1017 30.03 846 24.98 22.2 72 22 -0.2 31.7
00:10 1017 30.03 846 24.98 22.4 72.3 22 -0.1 31.9
00:15 1016 30 846 24.98 22.4 72.2 22 -0.3 31.5
00:20 1016 30 846 24.98 22.4 72.4 22 -0.4 31.3
00:25 1016 30 846 24.98 22.2 71.9 23 0.6 33
00:30 1016 30 846 24.98 21.5 70.7 24 0.5 32.9
00:35 1016 30 846 24.98 21.3 70.4 24 0.1 32.1
00:40 1016 30 846 24.98 21.4 70.5 24 0.1 32.2
00:45 1016 30 846 24.98 21.3 70.3 25 0.6 33.1
00:50 1016 30 845 24.95 20.6 69.1 27 1.4 34.5
00:55 1016 30 845 24.95 20.3 68.6 25 0.1 32.1
01:00 1016 30 845 24.95 21.3 70.3 24 -0.2 31.7
01:05 1016 30 845 24.95 21.5 70.8 24 0.3 32.6
01:10 1016 30 845 24.95 21.6 70.9 22 -1 30.2
01:15 1016 30 845 24.95 22.2 72 22 -0.2 31.7
01:20 1016 30 845 24.95 21.3 70.3 27 1.8 35.2
01:25 1016 30 845 24.95 20 68.1 28 1 33.8
01:30 1016 30 845 24.95 19.8 67.6 30 2.1 35.8
01:35 1016 30 845 24.95 19.9 67.8 31 2.2 35.9
01:40 1016 30 845 24.95 19.4 67 32 2.4 36.2
01:45 1016 30 845 24.95 19.1 66.4 32 2.3 36.1
01:50 1016 30 845 24.95 19.1 66.4 33 2.5 36.4
01:55 1016 30 845 24.95 19 66.2 32 1.9 35.3
02:00 1016 30 845 24.95 19 66.2 31 1.7 35.1
02:05 1016 30 845 24.95 19 66.2 33 2.5 36.5
02:10 1016 30 845 24.95 18.9 66 32 2.2 35.9
02:15 1016 30 845 24.95 18.8 65.8 32 1.8 35.3
02:20 1016 30 845 24.95 18.7 65.6 30 1.1 33.9
02:25 1016 30 845 24.95 18.7 65.6 32 1.7 35.1
02:30 1016 30 845 24.95 18.8 65.8 30 1.1 34
02:35 1016 30 845 24.95 18.8 65.8 30 1.1 34
02:40 1016 30 845 24.95 19.1 66.4 27 -0.2 31.7
02:45 1015 29.97 845 24.95 19.8 67.6 27 0.6 33.1
02:50 1015 29.97 845 24.95 19.5 67.1 28 0.8 33.4
02:55 1015 29.97 845 24.95 19.3 66.8 29 0.8 33.5
03:00 1015 29.97 845 24.95 19.2 66.5 29 0.8 33.4
03:05 1015 29.97 844 24.92 19 66.1 29 0.5 32.9
03:10 1015 29.97 844 24.92 18.9 66.1 28 0 32.1
03:15 1015 29.97 844 24.92 19.1 66.4 29 0.8 33.5
03:20 1015 29.97 844 24.92 19.2 66.6 28 0.4 32.8
03:25 1015 29.97 844 24.92 19.1 66.4 28 0.2 32.4
03:30 1015 29.97 844 24.92 19 66.1 29 0.7 33.2
03:35 1015 29.97 844 24.92 18.8 65.9 29 0.4 32.8
03:40 1015 29.97 844 24.92 18.8 65.8 29 0.5 32.9
03:45 1015 29.97 844 24.92 18.7 65.7 30 0.7 33.3
03:50 1015 29.97 844 24.92 18.6 65.4 30 0.7 33.3
03:55 1015 29.97 844 24.92 18.4 65 30 0.7 33.2
04:00 1015 29.97 844 24.92 18.4 65.1 30 0.6 33
04:05 1015 29.97 844 24.92 18.4 65.1 29 0.2 32.4
04:10 1015 29.97 844 24.92 18.6 65.4 29 0.4 32.6
04:15 1015 29.97 844 24.92 18.6 65.4 29 0.3 32.5
04:20 1015 29.97 844 24.92 18.5 65.3 29 0.3 32.5
04:25 1015 29.97 844 24.92 18.4 65.2 29 0.3 32.5
04:30 1015 29.97 844 24.92 18.2 64.7 30 0.3 32.5
04:35 1015 29.97 844 24.92 18 64.5 31 0.7 33.3
04:40 1015 29.97 844 24.92 18.1 64.6 31 1 33.8
04:45 1015 29.97 844 24.92 17.8 64 29 -0.3 31.4
04:50 1015 29.97 844 24.92 18.7 65.7 30 1.1 34
04:55 1015 29.97 844 24.92 18.7 65.7 32 1.9 35.3
05:00 1015 29.97 844 24.92 17.5 63.4 32 0.9 33.6
05:05 1015 29.97 844 24.92 17.2 62.9 32 0.6 33
05:10 1015 29.97 844 24.92 17.2 62.9 39 3.2 37.7
05:15 1015 29.97 844 24.92 16.7 62.1 33 0.5 33
05:20 1015 29.97 844 24.92 16.7 62 34 1 33.8
05:25 1015 29.97 844 24.92 16.3 61.4 36 1.4 34.5
05:30 1015 29.97 844 24.92 16.3 61.4 34 0.4 32.7
05:35 1015 29.97 844 24.92 16.7 62 34 0.9 33.6
05:40 1015 29.97 844 24.92 16.5 61.7 35 1.1 34
05:45 1014 29.94 844 24.92 16.3 61.3 37 1.6 34.8
05:50 1014 29.94 844 24.92 16.1 61 36 1 33.8
05:55 1014 29.94 844 24.92 15.9 60.7 40 2.3 36.1
06:00 1014 29.94 844 24.92 15.7 60.3 37 1.1 33.9
06:05 1015 29.97 844 24.92 15.7 60.3 37 1 33.9
06:10 1015 29.97 844 24.92 15.7 60.2 37 1.1 34
06:15 1015 29.97 844 24.92 15.8 60.4 35 0.4 32.7
06:20 1015 29.97 844 24.92 16.4 61.4 33 0.2 32.4
06:25 1015 29.97 844 24.92 16.4 61.6 34 0.5 32.8
06:30 1015 29.97 844 24.92 16.3 61.3 36 1.3 34.3
06:35 1015 29.97 844 24.92 16 60.8 40 2.6 36.7
06:40 1015 29.97 844 24.92 15.9 60.6 36 1.1 34
06:45 1015 29.97 844 24.92 16 60.8 35 0.7 33.3
06:50 1015 29.97 844 24.92 16 60.8 43 3.5 38.2
06:55 1015 29.97 844 24.92 16.1 61 42 3.3 37.9
07:00 1015 29.97 844 24.92 16.3 61.4 32 -0.3 31.4
07:05 1015 29.97 844 24.92 17.6 63.6 34 1.8 35.3
07:10 1015 29.97 844 24.92 17.1 62.8 40 3.6 38.5
07:15 1015 29.97 844 24.92 16.5 61.7 41 3.3 37.9
07:20 1015 29.97 844 24.92 15.9 60.7 40 2.4 36.4
07:25 1015 29.97 844 24.92 15.8 60.4 41 2.7 36.9
07:30 1015 29.97 844 24.92 15.9 60.6 41 2.9 37.2
07:35 1015 29.97 844 24.92 16.4 61.5 40 2.9 37.2
07:40 1015 29.97 844 24.92 17 62.6 41 3.6 38.6
07:45 1015 29.97 845 24.95 17.1 62.8 41 3.9 39
07:50 1015 29.97 845 24.95 17.2 62.9 41 3.8 38.9
07:55 1015 29.97 845 24.95 17.7 63.9 36 2.7 36.8
08:00 1015 29.97 845 24.95 18.5 65.3 35 2.8 37
08:05 1015 29.97 845 24.95 19.4 66.9 37 4.5 40.1
08:10 1015 29.97 845 24.95 19.5 67 41 6 42.8
08:15 1016 30 845 24.95 18.2 64.8 48 7.1 44.7
08:20 1016 30 845 24.95 17.8 64 43 5.2 41.4
08:25 1016 30 845 24.95 18.2 64.7 38 3.9 39.1
08:30 1016 30 845 24.95 19 66.2 36 3.9 39
08:35 1016 30 845 24.95 19.2 66.6 36 4.1 39.3
08:40 1016 30 845 24.95 19.3 66.8 37 4.5 40
08:45 1016 30 845 24.95 19.8 67.6 36 4.3 39.8
08:50 1016 30 845 24.95 19.5 67.1 37 4.5 40.1
08:55 1016 30 845 24.95 19.5 67 36 4.2 39.5
09:00 1016 30 845 24.95 19.7 67.4 34 3.6 38.5
09:05 1016 30 845 24.95 19.7 67.5 34 3.5 38.2
09:10 1016 30 845 24.95 20.2 68.4 35 4.3 39.7
09:15 1016 30 845 24.95 20.5 68.9 34 4.4 40
09:20 1016 30 845 24.95 20 68 37 5.1 41.2
09:25 1016 30 845 24.95 19.6 67.3 39 5.4 41.8
09:30 1016 30 845 24.95 20 68 35 4.4 39.9
09:35 1016 30 845 24.95 20.2 68.4 37 5.2 41.3
09:40 1016 30 845 24.95 20.3 68.6 37 5.4 41.7
09:45 1016 30 845 24.95 20.6 69 36 5.3 41.6
09:50 1016 30 845 24.95 21.2 70.1 37 6.3 43.3
09:55 1016 30 845 24.95 21.1 69.9 38 6.2 43.2
10:00 1016 30 845 24.95 21 69.7 37 5.7 42.3
10:05 1016 30 845 24.95 21.5 70.6 32 4.3 39.7
10:10 1016 30 845 24.95 22.2 72 32 4.8 40.7
10:15 1016 30 845 24.95 23.1 73.6 29 4.1 39.5
10:20 1015 29.97 845 24.95 23.7 74.6 27 3.9 39
10:25 1015 29.97 845 24.95 23.7 74.7 26 3.5 38.2
10:30 1015 29.97 845 24.95 24 75.2 28 4.6 40.2
10:35 1015 29.97 845 24.95 24.4 75.8 24 2.8 37.1
10:40 1015 29.97 845 24.95 24.6 76.2 24 3 37.4
10:45 1015 29.97 845 24.95 24.7 76.5 25 3.9 39
10:50 1015 29.97 845 24.95 24.4 75.8 23 1.9 35.4
10:55 1015 29.97 845 24.95 24.4 75.8 25 3.5 38.4
11:00 1015 29.97 845 24.95 24.1 75.3 24 2.4 36.2
11:05 1015 29.97 845 24.95 24 75.1 25 3.1 37.5
11:10 1015 29.97 845 24.95 23.5 74.3 25 2.7 36.9
11:15 1015 29.97 845 24.95 24 75.2 25 2.8 37
11:20 1015 29.97 845 24.95 24.3 75.7 25 3.1 37.6
11:25 1015 29.97 845 24.95 24.1 75.5 27 4.1 39.3
11:30 1015 29.97 845 24.95 24.5 76 28 5.1 41.2
11:35 1015 29.97 845 24.95 24.4 75.9 30 6.1 43
11:40 1015 29.97 844 24.92 24.3 75.7 31 6.4 43.4
11:45 1015 29.97 844 24.92 24.3 75.8 29 5.5 41.8
11:50 1015 29.97 844 24.92 24.5 76.2 28 5.3 41.5
11:55 1015 29.97 844 24.92 25.1 77.2 27 5.3 41.5
12:00 1015 29.97 844 24.92 25.3 77.6 26 4.6 40.4
12:05 1015 29.97 844 24.92 25.2 77.4 27 5.3 41.5
12:10 1015 29.97 844 24.92 25.1 77.2 27 5.2 41.3
12:15 1015 29.97 844 24.92 25.6 78.1 26 5.1 41.2
12:20 1015 29.97 844 24.92 25.8 78.4 26 5.3 41.5
12:25 1015 29.97 844 24.92 25.7 78.2 26 4.7 40.5
12:30 1015 29.97 844 24.92 25.2 77.3 26 4.3 39.8
12:35 1015 29.97 844 24.92 25.8 78.5 25 4.7 40.4
12:40 1015 29.97 844 24.92 26.1 79 25 5 40.9
12:45 1015 29.97 844 24.92 26.4 79.6 23 3.9 39.1
12:50 1015 29.97 844 24.92 26.3 79.4 23 4 39.3
12:55 1015 29.97 844 24.92 26.7 80 23 4.1 39.4
13:00 1015 29.97 844 24.92 27.1 80.8 24 4.9 40.7
13:05 1015 29.97 844 24.92 27.7 81.8 23 4.7 40.5
13:10 1015 29.97 844 24.92 27.2 80.9 21 3 37.5
13:15 1015 29.97 844 24.92 27 80.5 22 3.9 39.1
13:20 1014 29.94 844 24.92 27.2 80.9 24 5 41
13:25 1014 29.94 844 24.92 27.1 80.8 22 3.6 38.6
13:30 1014 29.94 844 24.92 27.3 81.2 21 3.3 37.9
13:35 1014 29.94 844 24.92 27.6 81.7 22 4.3 39.7
13:40 1014 29.94 844 24.92 27.8 82 21 3.9 39
13:45 1014 29.94 844 24.92 27.7 81.8 22 4.3 39.7
13:50 1014 29.94 844 24.92 27.8 82 21 3.7 38.7
13:55 1014 29.94 844 24.92 27.7 81.9 20 3 37.5
14:00 1014 29.94 844 24.92 27.5 81.5 21 3.9 39
14:05 1014 29.94 844 24.92 27.5 81.6 21 3.6 38.5
14:10 1014 29.94 844 24.92 27.5 81.4 20 2.9 37.1
14:15 1014 29.94 843 24.89 27.5 81.6 22 4 39.1
14:20 1014 29.94 843 24.89 27.5 81.4 21 3.6 38.4
14:25 1014 29.94 843 24.89 27 80.6 23 4.5 40.1
14:30 1014 29.94 843 24.89 27.6 81.6 21 3.5 38.3
14:35 1014 29.94 843 24.89 27.7 81.9 22 4.1 39.4
14:40 1014 29.94 843 24.89 28 82.5 21 3.8 38.9
14:45 1014 29.94 843 24.89 27.9 82.2 21 4.1 39.4
14:50 1014 29.94 843 24.89 27.9 82.1 21 3.9 38.9
14:55 1014 29.94 843 24.89 28 82.4 22 4.5 40.1
15:00 1014 29.94 843 24.89 28.1 82.5 21 3.9 39.1
15:05 1014 29.94 843 24.89 28 82.4 21 4 39.2
15:10 1014 29.94 843 24.89 28.7 83.6 21 4.7 40.5
15:15 1014 29.94 843 24.89 28.7 83.6 21 4.3 39.7
15:20 1014 29.94 843 24.89 28.5 83.2 21 4.5 40
15:25 1014 29.94 843 24.89 27.8 82.1 22 4.3 39.7
15:30 1014 29.94 843 24.89 28.3 82.9 21 4.5 40.1
15:35 1014 29.94 843 24.89 27.2 80.9 23 4.8 40.6
15:40 1014 29.94 843 24.89 27.6 81.7 22 4.1 39.4
15:45 1014 29.94 843 24.89 27.9 82.2 23 5.2 41.3
15:50 1014 29.94 843 24.89 27.7 81.8 24 5.7 42.2
15:55 1014 29.94 843 24.89 26.9 80.4 23 4.3 39.7
16:00 1014 29.94 843 24.89 27.5 81.4 22 4.4 39.9
16:05 1014 29.94 843 24.89 27.9 82.2 22 4.4 39.9
16:10 1014 29.94 843 24.89 27.8 82.1 22 4.3 39.8
16:15 1014 29.94 843 24.89 28.1 82.5 21 3.9 39
16:20 1014 29.94 843 24.89 27.8 82 22 4.4 40
16:25 1014 29.94 843 24.89 28.1 82.6 22 4.4 39.9
16:30 1014 29.94 843 24.89 27.9 82.2 21 3.8 38.8
16:35 1014 29.94 843 24.89 28 82.3 20 3.1 37.5
16:40 1014 29.94 843 24.89 28 82.4 20 2.9 37.3
16:45 1014 29.94 843 24.89 28.3 83 20 3.4 38.1
16:50 1014 29.94 843 24.89 27.5 81.6 22 4 39.1
16:55 1014 29.94 843 24.89 27.4 81.3 21 3.7 38.6
17:00 1014 29.94 843 24.89 28.2 82.8 21 3.8 38.9
17:05 1014 29.94 843 24.89 28.4 83.2 21 4.1 39.4
17:10 1014 29.94 843 24.89 28.1 82.7 21 4.2 39.5
17:15 1014 29.94 843 24.89 27.5 81.6 22 4.4 40
17:20 1014 29.94 843 24.89 27.4 81.3 22 3.8 38.8
17:25 1014 29.94 843 24.89 27.1 80.9 20 2.7 36.8
17:30 1014 29.94 843 24.89 27.1 80.8 21 3.2 37.7
17:35 1014 29.94 843 24.89 27 80.5 22 3.9 39
17:40 1014 29.94 843 24.89 26.6 79.9 21 3.1 37.6
17:45 1014 29.94 843 24.89 26.5 79.6 22 3.1 37.6
17:50 1014 29.94 843 24.89 26.4 79.5 21 2.6 36.7
17:55 1014 29.94 843 24.89 26.6 79.8 20 2.1 35.8
18:00 1014 29.94 843 24.89 26.4 79.5 21 2.7 36.8
18:05 1014 29.94 843 24.89 26.1 79 21 2.6 36.7
18:10 1014 29.94 843 24.89 26.4 79.4 22 3 37.5
18:15 1014 29.94 843 24.89 26.2 79.2 21 2.4 36.3
18:20 1014 29.94 843 24.89 26.2 79.1 23 3.5 38.3
18:25 1014 29.94 843 24.89 26.2 79.1 22 3.2 37.8
18:30 1014 29.94 843 24.89 26.3 79.4 23 3.9 39
18:35 1014 29.94 843 24.89 26.1 79 23 3.9 39
18:40 1014 29.94 843 24.89 25.9 78.5 24 4 39.1
18:45 1014 29.94 843 24.89 25.6 78 23 3.2 37.8
18:50 1014 29.94 843 24.89 25.3 77.6 24 3.8 38.8
18:55 1014 29.94 843 24.89 25.1 77.3 24 3.4 38.2
19:00 1014 29.94 843 24.89 24.8 76.6 23 2.8 37
19:05 1014 29.94 843 24.89 24.6 76.3 23 2.5 36.5
19:10 1014 29.94 843 24.89 24.6 76.2 24 2.7 36.9
19:15 1014 29.94 844 24.92 24.6 76.2 23 2 35.6
19:20 1014 29.94 844 24.92 24.4 75.9 24 2.9 37.2
19:25 1015 29.97 844 24.92 24.3 75.7 24 2.8 37.1
19:30 1015 29.97 844 24.92 24.1 75.4 24 2.2 36
19:35 1015 29.97 844 24.92 24 75.2 23 2 35.6
19:40 1015 29.97 844 24.92 23.9 75.1 24 2.2 36
19:45 1015 29.97 844 24.92 23.8 74.8 23 1.6 35
19:50 1015 29.97 844 24.92 23.6 74.4 23 1.5 34.7
19:55 1015 29.97 844 24.92 23.5 74.3 22 0.5 33
20:00 1015 29.97 844 24.92 23.5 74.2 22 1 33.8
20:05 1015 29.97 844 24.92 23.4 74 23 1.5 34.7
20:10 1015 29.97 844 24.92 23.1 73.7 24 1.5 34.7
20:15 1015 29.97 845 24.95 22.9 73.3 23 1.1 34
20:20 1015 29.97 845 24.95 22.6 72.7 23 0.6 33.1
20:25 1016 30 845 24.95 22.5 72.4 23 0.7 33.2
20:30 1016 30 845 24.95 22.3 72.2 23 0.6 33.1
20:35 1016 30 845 24.95 22.2 72 23 0.1 32.2
20:40 1016 30 845 24.95 22 71.6 23 0 32.1
20:45 1016 30 845 24.95 21.8 71.2 23 -0.1 31.8
20:50 1016 30 845 24.95 21.6 70.8 23 -0.3 31.5
20:55 1016 30 845 24.95 21.4 70.5 23 -0.5 31.1
21:00 1016 30 846 24.98 21.2 70.1 23 -0.6 31
21:05 1016 30 846 24.98 21 69.8 24 -0.1 31.8
21:10 1017 30.03 846 24.98 20.8 69.4 26 1 33.7
21:15 1017 30.03 846 24.98 20.2 68.3 29 1.6 35
21:20 1017 30.03 846 24.98 19.5 67 31 2.1 35.7
21:25 1017 30.03 846 24.98 19 66.3 31 1.8 35.2
21:30 1017 30.03 846 24.98 18.5 65.3 31 1.4 34.5
21:35 1017 30.03 846 24.98 17.9 64.1 33 1.7 35
21:40 1017 30.03 846 24.98 17.3 63.2 32 0.7 33.2
21:45 1017 30.03 846 24.98 17.2 62.9 33 0.9 33.6
21:50 1017 30.03 847 25.01 16.9 62.5 32 0.3 32.6
21:55 1017 30.03 847 25.01 17.1 62.8 31 0 32.1
22:00 1017 30.03 847 25.01 17.3 63.2 31 0.1 32.2
22:05 1017 30.03 847 25.01 17.3 63.1 31 0.2 32.3
22:10 1018 30.06 847 25.01 17 62.6 31 -0.2 31.7
22:15 1018 30.06 847 25.01 17 62.6 30 -0.7 30.7
22:20 1018 30.06 847 25.01 17 62.5 30 -0.7 30.8
22:25 1018 30.06 847 25.01 16.7 62.1 32 0 32
22:30 1018 30.06 847 25.01 16.6 61.9 32 -0.2 31.7
22:35 1018 30.06 847 25.01 16.7 62.1 32 0.1 32.1
22:40 1018 30.06 847 25.01 16.9 62.3 29 -1.2 29.9
22:45 1018 30.06 847 25.01 17 62.6 31 -0.2 31.6
22:50 1018 30.06 847 25.01 17 62.6 28 -1.3 29.6
22:55 1018 30.06 847 25.01 17 62.6 29 -1.1 30
23:00 1018 30.06 847 25.01 16.9 62.4 28 -1.9 28.6
23:05 1018 30.06 847 25.01 16.9 62.3 30 -0.9 30.3
23:10 1018 30.06 848 25.04 16.7 62.1 29 -1.2 29.8
23:15 1018 30.06 848 25.04 16.6 61.8 31 -0.4 31.3
23:20 1018 30.06 848 25.04 16.1 61 34 0.2 32.3
23:25 1018 30.06 848 25.04 15.4 59.8 35 0.1 32.1
23:30 1018 30.06 848 25.04 15.1 59.1 38 1 33.7
23:35 1018 30.06 848 25.04 14.9 58.9 37 0.4 32.7
23:40 1018 30.06 848 25.04 14.6 58.3 38 0.4 32.7
23:45 1018 30.06 848 25.04 14.5 58 39 0.9 33.6
23:50 1019 30.09 848 25.04 14.1 57.4 39 0.6 33.1
23:55 1019 30.09 848 25.04 14.1 57.4 39 0.3 32.5
24:00 1019 30.09 848 25.04 14.2 57.6 37 -0.1 31.9